Terminal Aerodrome Forecast
Issued by NWS Indianapolis, IN

Home | Current Version | Previous Version | Text Only | Print | Product List | Glossary On
Versions: 1 2 3 4 5 6 7 8 9 10 11 12 13 14 15 16 17 18 19 20 21 22 23 24 25 26 27
998
FTUS43 KIND 081025 AAC
TAFIND
TAF AMD
KIND 081025Z 0810/0912 27012KT P6SM SCT025 BKN130
      TEMPO 0810/0812 BKN025
     FM081200 28013KT P6SM SCT025
     FM081700 28013G23KT P6SM BKN025
     FM082100 28013G22KT P6SM BKN040
     FM082300 29012G20KT P6SM BKN025
     FM090400 29010KT P6SM BKN015=

USA.gov is the U.S. government's official web portal to all federal, state and local government web resources and services.